M/T Arcadia — SY7849 — position and weather

sailwx.info

Track history (hours):
 
Tides and Currents Weather Stations Pressure Air Temp Water Temp Dewpoint Dewpoint Depression Visibility Wind Speed Wind Dir Waves Ship Positions

M/T Arcadia

Last reported at 2016-Apr-29 00:27 UTC. Time now 2016-Apr-29 06:03 UTC.
Position N 35°50' E 025°04'.

Length 76 m; draft 3.7 m.

Type: Tanker. MMSI: 240560000.

Date/timePositionNaut miles runAvg speedWind from/ knotsBaromVisibWave heightAir tempDewpointWater temp
2016-Apr-29 00:27N 35°50' E 025°04'18 8.0
2016-Apr-28 22:08N 35°46' E 024°41'14 7.9
2016-Apr-28 20:22N 35°42' E 024°25'7 7.9
2016-Apr-28 19:32N 35°40' E 024°17'8 7.7
2016-Apr-28 18:33N 35°38' E 024°08'6 6.3
2016-Apr-28 17:33N 35°33' E 024°03'0 0.3
2016-Apr-28 16:32N 35°33' E 024°03'0 0.0
2016-Apr-28 15:32N 35°33' E 024°03'0 0.0
2016-Apr-28 14:32N 35°33' E 024°03'0 0.0
2016-Apr-28 13:32N 35°33' E 024°03'0 0.0
2016-Apr-28 10:32N 35°33' E 024°03'0 0.0
2016-Apr-28 08:31N 35°33' E 024°03'111 3.8
2016-Apr-27 03:04N 37°22' E 023°36'4 8.3
2016-Apr-27 02:33N 37°26' E 023°35'8 8.4
2016-Apr-27 01:33N 37°35' E 023°33'8 7.7
2016-Apr-27 00:33N 37°39' E 023°25'7 7.2
2016-Apr-26 23:33N 37°42' E 023°17'9 8.5
2016-Apr-26 22:33N 37°50' E 023°11'7 0.2
2016-Apr-25 16:25N 37°55' E 023°05'1 0.8
2016-Apr-25 15:32N 37°54' E 023°05'0 0.0
2016-Apr-25 11:33N 37°54' E 023°05'0 0.0
2016-Apr-25 10:27N 37°54' E 023°05'0 0.0
2016-Apr-25 09:33N 37°54' E 023°05'0 0.0
2016-Apr-25 08:24N 37°54' E 023°05'0 0.0
2016-Apr-25 07:33N 37°54' E 023°05'0 0.0
2016-Apr-25 06:33N 37°54' E 023°05'0 0.0
2016-Apr-25 05:27N 37°54' E 023°05'0 0.0
2016-Apr-25 04:06N 37°54' E 023°05'0 0.0
2016-Apr-25 03:30N 37°54' E 023°05'0 0.0
2016-Apr-25 02:30N 37°54' E 023°05'0 0.0
2016-Apr-25 01:24N 37°54' E 023°05'0 0.0
2016-Apr-24 23:24N 37°54' E 023°05'0 0.0
2016-Apr-24 21:21N 37°54' E 023°05'0 0.0
2016-Apr-24 18:24N 37°54' E 023°05'0 0.0
2016-Apr-24 17:33N 37°54' E 023°05'0 0.0
2016-Apr-24 16:33N 37°54' E 023°05'0 0.0
2016-Apr-24 15:29N 37°54' E 023°05'0 0.0
2016-Apr-24 14:30N 37°54' E 023°05'0 0.0
2016-Apr-24 13:27N 37°54' E 023°05'2 1.8
2016-Apr-24 12:31N 37°54' E 023°07'8 8.5
2016-Apr-24 11:32N 37°47' E 023°13'8 8.4
2016-Apr-24 10:33N 37°40' E 023°18'8 8.4
2016-Apr-24 09:33N 37°36' E 023°28'8 8.2
2016-Apr-24 08:33N 37°30' E 023°34'8 7.7
2016-Apr-24 07:33N 37°22' E 023°36'8 8.4
2016-Apr-24 06:32N 37°15' E 023°31'8 8.1
2016-Apr-24 05:33N 37°08' E 023°27'8 7.8
2016-Apr-24 04:33N 37°01' E 023°22'9 8.4
2016-Apr-24 03:32N 36°53' E 023°18'87 3.4
2016-Apr-23 02:06N 35°34' E 024°04'55 4.7
2016-Apr-22 14:33N 36°22' E 023°33'49 7.6
2016-Apr-22 08:06N 37°09' E 023°15'4 7.9
2016-Apr-22 07:33N 37°13' E 023°16'7 6.9
2016-Apr-22 06:28N 37°19' E 023°21'5 5.3
2016-Apr-22 05:30N 37°24' E 023°24'0 0.0
2016-Apr-22 04:30N 37°24' E 023°23'0 0.0
2016-Apr-22 02:30N 37°24' E 023°23'0 0.0
2016-Apr-22 01:30N 37°24' E 023°23'0 0.0
2016-Apr-21 23:30N 37°24' E 023°24'0 0.0
2016-Apr-21 21:18N 37°24' E 023°23'0 0.0
2016-Apr-21 20:24N 37°24' E 023°23'0 0.0
2016-Apr-21 19:30N 37°24' E 023°23'0 0.0
2016-Apr-21 18:33N 37°24' E 023°23'0 0.0
2016-Apr-21 17:33N 37°24' E 023°23'0 0.0
2016-Apr-21 16:27N 37°24' E 023°23'0 0.0
2016-Apr-21 15:30N 37°24' E 023°23'0 0.0
2016-Apr-21 14:06N 37°24' E 023°23'0 0.0
2016-Apr-21 13:27N 37°24' E 023°23'0 0.0
2016-Apr-21 12:33N 37°24' E 023°23'0 0.0
2016-Apr-21 10:06N 37°24' E 023°23'0 0.0
2016-Apr-21 08:15N 37°24' E 023°23'0 0.1
2016-Apr-21 07:33N 37°24' E 023°23'0 0.0
2016-Apr-21 06:30N 37°24' E 023°23'0 0.0
2016-Apr-21 05:24N 37°24' E 023°23'0 0.0
2016-Apr-21 04:32N 37°24' E 023°23'0 0.0
2016-Apr-21 03:30N 37°24' E 023°23'0 0.0
2016-Apr-21 02:31N 37°24' E 023°24'0 0.0
2016-Apr-21 01:33N 37°24' E 023°24'3 2.6
2016-Apr-21 00:33N 37°24' E 023°27'7 7.3
2016-Apr-20 23:33N 37°29' E 023°33'8 7.7
2016-Apr-20 22:33N 37°35' E 023°28'8 7.6
2016-Apr-20 21:33N 37°40' E 023°20'7 7.3
2016-Apr-20 20:33N 37°45' E 023°15'8 7.6
2016-Apr-20 19:33N 37°52' E 023°10'4 0.2
2016-Apr-19 16:33N 37°55' E 023°05'4 3.7
2016-Apr-19 15:32N 37°52' E 023°09'6 6.5
2016-Apr-19 14:34N 37°47' E 023°13'6 6.2
2016-Apr-19 13:33N 37°42' E 023°17'7 6.8
2016-Apr-19 12:33N 37°39' E 023°25'7 7.4
2016-Apr-19 11:33N 37°36' E 023°34'8 7.8
2016-Apr-19 10:33N 37°29' E 023°36'7 7.4
2016-Apr-19 09:33N 37°21' E 023°38'8 7.9
2016-Apr-19 08:33N 37°14' E 023°40'8 8.4
2016-Apr-19 07:33N 37°05' E 023°42'8 8.4
2016-Apr-19 06:33N 36°57' E 023°44'8 8.4
2016-Apr-19 05:33N 36°49' E 023°46'8 8.4
2016-Apr-19 04:33N 36°41' E 023°48'8 8.3
2016-Apr-19 03:33N 36°32' E 023°49'8 8.1
2016-Apr-19 02:33N 36°25' E 023°51'8 7.7
2016-Apr-19 01:33N 36°17' E 023°53'7 7.5
2016-Apr-19 00:33N 36°10' E 023°55'  
Track history (hours):
 
Tides and Currents Weather Stations Pressure Air Temp Water Temp Dewpoint Dewpoint Depression Visibility Wind Speed Wind Dir Waves Ship Positions

M/T Arcadia

Last reported at 2016-Apr-29 00:27 UTC. Time now 2016-Apr-29 06:03 UTC.
Position N 35°50' E 025°04'.

Length 76 m; draft 3.7 m.

Type: Tanker. MMSI: 240560000.

Date/timePositionNaut miles runAvg speedWind from/ knotsBaromVisibWave heightAir tempDewpointWater temp
2016-Apr-29 00:27N 35°50' E 025°04'18 8.0
2016-Apr-28 22:08N 35°46' E 024°41'14 7.9
2016-Apr-28 20:22N 35°42' E 024°25'7 7.9
2016-Apr-28 19:32N 35°40' E 024°17'8 7.7
2016-Apr-28 18:33N 35°38' E 024°08'6 6.3
2016-Apr-28 17:33N 35°33' E 024°03'0 0.3
2016-Apr-28 16:32N 35°33' E 024°03'0 0.0
2016-Apr-28 15:32N 35°33' E 024°03'0 0.0
2016-Apr-28 14:32N 35°33' E 024°03'0 0.0
2016-Apr-28 13:32N 35°33' E 024°03'0 0.0
2016-Apr-28 10:32N 35°33' E 024°03'0 0.0
2016-Apr-28 08:31N 35°33' E 024°03'111 3.8
2016-Apr-27 03:04N 37°22' E 023°36'4 8.3
2016-Apr-27 02:33N 37°26' E 023°35'8 8.4
2016-Apr-27 01:33N 37°35' E 023°33'8 7.7
2016-Apr-27 00:33N 37°39' E 023°25'7 7.2
2016-Apr-26 23:33N 37°42' E 023°17'9 8.5
2016-Apr-26 22:33N 37°50' E 023°11'7 0.2
2016-Apr-25 16:25N 37°55' E 023°05'1 0.8
2016-Apr-25 15:32N 37°54' E 023°05'0 0.0
2016-Apr-25 11:33N 37°54' E 023°05'0 0.0
2016-Apr-25 10:27N 37°54' E 023°05'0 0.0
2016-Apr-25 09:33N 37°54' E 023°05'0 0.0
2016-Apr-25 08:24N 37°54' E 023°05'0 0.0
2016-Apr-25 07:33N 37°54' E 023°05'0 0.0
2016-Apr-25 06:33N 37°54' E 023°05'0 0.0
2016-Apr-25 05:27N 37°54' E 023°05'0 0.0
2016-Apr-25 04:06N 37°54' E 023°05'0 0.0
2016-Apr-25 03:30N 37°54' E 023°05'0 0.0
2016-Apr-25 02:30N 37°54' E 023°05'0 0.0
2016-Apr-25 01:24N 37°54' E 023°05'0 0.0
2016-Apr-24 23:24N 37°54' E 023°05'0 0.0
2016-Apr-24 21:21N 37°54' E 023°05'0 0.0
2016-Apr-24 18:24N 37°54' E 023°05'0 0.0
2016-Apr-24 17:33N 37°54' E 023°05'0 0.0
2016-Apr-24 16:33N 37°54' E 023°05'0 0.0
2016-Apr-24 15:29N 37°54' E 023°05'0 0.0
2016-Apr-24 14:30N 37°54' E 023°05'0 0.0
2016-Apr-24 13:27N 37°54' E 023°05'2 1.8
2016-Apr-24 12:31N 37°54' E 023°07'8 8.5
2016-Apr-24 11:32N 37°47' E 023°13'8 8.4
2016-Apr-24 10:33N 37°40' E 023°18'8 8.4
2016-Apr-24 09:33N 37°36' E 023°28'8 8.2
2016-Apr-24 08:33N 37°30' E 023°34'8 7.7
2016-Apr-24 07:33N 37°22' E 023°36'8 8.4
2016-Apr-24 06:32N 37°15' E 023°31'8 8.1
2016-Apr-24 05:33N 37°08' E 023°27'8 7.8
2016-Apr-24 04:33N 37°01' E 023°22'9 8.4
2016-Apr-24 03:32N 36°53' E 023°18'87 3.4
2016-Apr-23 02:06N 35°34' E 024°04'55 4.7
2016-Apr-22 14:33N 36°22' E 023°33'49 7.6
2016-Apr-22 08:06N 37°09' E 023°15'4 7.9
2016-Apr-22 07:33N 37°13' E 023°16'7 6.9
2016-Apr-22 06:28N 37°19' E 023°21'5 5.3
2016-Apr-22 05:30N 37°24' E 023°24'0 0.0
2016-Apr-22 04:30N 37°24' E 023°23'0 0.0
2016-Apr-22 02:30N 37°24' E 023°23'0 0.0
2016-Apr-22 01:30N 37°24' E 023°23'0 0.0
2016-Apr-21 23:30N 37°24' E 023°24'0 0.0
2016-Apr-21 21:18N 37°24' E 023°23'0 0.0
2016-Apr-21 20:24N 37°24' E 023°23'0 0.0
2016-Apr-21 19:30N 37°24' E 023°23'0 0.0
2016-Apr-21 18:33N 37°24' E 023°23'0 0.0
2016-Apr-21 17:33N 37°24' E 023°23'0 0.0
2016-Apr-21 16:27N 37°24' E 023°23'0 0.0
2016-Apr-21 15:30N 37°24' E 023°23'0 0.0
2016-Apr-21 14:06N 37°24' E 023°23'0 0.0
2016-Apr-21 13:27N 37°24' E 023°23'0 0.0
2016-Apr-21 12:33N 37°24' E 023°23'0 0.0
2016-Apr-21 10:06N 37°24' E 023°23'0 0.0
2016-Apr-21 08:15N 37°24' E 023°23'0 0.1
2016-Apr-21 07:33N 37°24' E 023°23'0 0.0
2016-Apr-21 06:30N 37°24' E 023°23'0 0.0
2016-Apr-21 05:24N 37°24' E 023°23'0 0.0
2016-Apr-21 04:32N 37°24' E 023°23'0 0.0
2016-Apr-21 03:30N 37°24' E 023°23'0 0.0
2016-Apr-21 02:31N 37°24' E 023°24'0 0.0
2016-Apr-21 01:33N 37°24' E 023°24'3 2.6
2016-Apr-21 00:33N 37°24' E 023°27'7 7.3
2016-Apr-20 23:33N 37°29' E 023°33'8 7.7
2016-Apr-20 22:33N 37°35' E 023°28'8 7.6
2016-Apr-20 21:33N 37°40' E 023°20'7 7.3
2016-Apr-20 20:33N 37°45' E 023°15'8 7.6
2016-Apr-20 19:33N 37°52' E 023°10'4 0.2
2016-Apr-19 16:33N 37°55' E 023°05'4 3.7
2016-Apr-19 15:32N 37°52' E 023°09'6 6.5
2016-Apr-19 14:34N 37°47' E 023°13'6 6.2
2016-Apr-19 13:33N 37°42' E 023°17'7 6.8
2016-Apr-19 12:33N 37°39' E 023°25'7 7.4
2016-Apr-19 11:33N 37°36' E 023°34'8 7.8
2016-Apr-19 10:33N 37°29' E 023°36'7 7.4
2016-Apr-19 09:33N 37°21' E 023°38'8 7.9
2016-Apr-19 08:33N 37°14' E 023°40'8 8.4
2016-Apr-19 07:33N 37°05' E 023°42'8 8.4
2016-Apr-19 06:33N 36°57' E 023°44'8 8.4
2016-Apr-19 05:33N 36°49' E 023°46'8 8.4
2016-Apr-19 04:33N 36°41' E 023°48'8 8.3
2016-Apr-19 03:33N 36°32' E 023°49'8 8.1
2016-Apr-19 02:33N 36°25' E 023°51'8 7.7
2016-Apr-19 01:33N 36°17' E 023°53'7 7.5
2016-Apr-19 00:33N 36°10' E 023°55'  

Dump ship's entire track history